Terminal Aerodrome Forecast
Issued by NWS

Home | Current Version | Previous Version | Graphics & Text | Print | Product List | Glossary On
Versions: 1 2 3 4 5 6 7 8 9 10 11 12 13 14
016
FTUS43 KOAX 071139
TAFCDR
TAF
KCDR 071139Z 0712/0812 27012G20KT P6SM OVC070
     FM071500 29020G32KT P6SM BKN070
     FM071800 31031G45KT P6SM SCT200
     FM080000 29019G28KT P6SM BKN250=

USA.gov is the U.S. government's official web portal to all federal, state and local government web resources and services.